sensor_id;sensor_type;location;lat;lon;timestamp;temperature;humidity
65478;SHT31;53678;39.642;22.430;2023-01-05T00:00:53;4.14;96.22
65478;SHT31;53678;39.642;22.430;2023-01-05T00:03:20;4.06;96.37
65478;SHT31;53678;39.642;22.430;2023-01-05T00:05:45;4.04;96.59
65478;SHT31;53678;39.642;22.430;2023-01-05T00:08:14;4.17;96.51
65478;SHT31;53678;39.642;22.430;2023-01-05T00:10:40;4.16;96.38
65478;SHT31;53678;39.642;22.430;2023-01-05T00:13:27;4.30;96.82
65478;SHT31;53678;39.642;22.430;2023-01-05T00:16:13;4.20;96.65
65478;SHT31;53678;39.642;22.430;2023-01-05T00:18:58;4.25;96.96
65478;SHT31;53678;39.642;22.430;2023-01-05T00:21:43;4.27;96.88
65478;SHT31;53678;39.642;22.430;2023-01-05T00:24:28;4.33;96.97
65478;SHT31;53678;39.642;22.430;2023-01-05T00:26:55;4.44;97.22
65478;SHT31;53678;39.642;22.430;2023-01-05T00:29:20;4.17;95.96
65478;SHT31;53678;39.642;22.430;2023-01-05T00:31:49;3.85;96.50
65478;SHT31;53678;39.642;22.430;2023-01-05T00:34:15;3.66;96.87
65478;SHT31;53678;39.642;22.430;2023-01-05T00:36:41;3.61;97.22
65478;SHT31;53678;39.642;22.430;2023-01-05T00:39:07;3.48;96.81
65478;SHT31;53678;39.642;22.430;2023-01-05T00:41:33;3.30;97.19
65478;SHT31;53678;39.642;22.430;2023-01-05T00:44:01;3.24;97.52
65478;SHT31;53678;39.642;22.430;2023-01-05T00:46:30;3.39;97.68
65478;SHT31;53678;39.642;22.430;2023-01-05T00:48:57;3.46;97.43
65478;SHT31;53678;39.642;22.430;2023-01-05T00:51:23;3.38;97.00
65478;SHT31;53678;39.642;22.430;2023-01-05T00:53:49;3.34;96.74
65478;SHT31;53678;39.642;22.430;2023-01-05T00:56:14;3.41;97.39
65478;SHT31;53678;39.642;22.430;2023-01-05T00:58:40;3.34;96.49
65478;SHT31;53678;39.642;22.430;2023-01-05T01:01:10;3.28;96.13
65478;SHT31;53678;39.642;22.430;2023-01-05T01:03:37;3.38;96.28
65478;SHT31;53678;39.642;22.430;2023-01-05T01:06:03;3.35;95.74
65478;SHT31;53678;39.642;22.430;2023-01-05T01:08:29;3.17;95.42
65478;SHT31;53678;39.642;22.430;2023-01-05T01:10:56;3.30;96.46
65478;SHT31;53678;39.642;22.430;2023-01-05T01:13:23;3.41;96.73
65478;SHT31;53678;39.642;22.430;2023-01-05T01:15:49;3.44;96.63
65478;SHT31;53678;39.642;22.430;2023-01-05T01:18:15;3.55;96.55
65478;SHT31;53678;39.642;22.430;2023-01-05T01:20:44;3.56;96.05
65478;SHT31;53678;39.642;22.430;2023-01-05T01:23:09;3.55;95.85
65478;SHT31;53678;39.642;22.430;2023-01-05T01:25:36;3.56;95.83
65478;SHT31;53678;39.642;22.430;2023-01-05T01:28:06;3.52;95.53
65478;SHT31;53678;39.642;22.430;2023-01-05T01:30:32;3.51;95.48
65478;SHT31;53678;39.642;22.430;2023-01-05T01:33:01;3.54;95.80
65478;SHT31;53678;39.642;22.430;2023-01-05T01:35:27;3.59;94.92
65478;SHT31;53678;39.642;22.430;2023-01-05T01:37:52;3.51;95.33
65478;SHT31;53678;39.642;22.430;2023-01-05T01:40:21;3.54;96.36
65478;SHT31;53678;39.642;22.430;2023-01-05T01:42:47;3.62;95.92
65478;SHT31;53678;39.642;22.430;2023-01-05T01:45:24;3.66;95.41
65478;SHT31;53678;39.642;22.430;2023-01-05T01:47:57;3.72;95.50
65478;SHT31;53678;39.642;22.430;2023-01-05T01:50:30;3.87;95.39
65478;SHT31;53678;39.642;22.430;2023-01-05T01:53:02;3.73;94.50
65478;SHT31;53678;39.642;22.430;2023-01-05T01:55:30;3.72;94.92
65478;SHT31;53678;39.642;22.430;2023-01-05T01:58:00;3.76;94.83
65478;SHT31;53678;39.642;22.430;2023-01-05T02:00:27;3.81;94.56
65478;SHT31;53678;39.642;22.430;2023-01-05T02:02:54;3.81;94.56
65478;SHT31;53678;39.642;22.430;2023-01-05T02:05:26;3.82;94.57
65478;SHT31;53678;39.642;22.430;2023-01-05T02:07:55;3.83;94.50
65478;SHT31;53678;39.642;22.430;2023-01-05T02:32:56;4.21;95.02
65478;SHT31;53678;39.642;22.430;2023-01-05T02:40:47;4.51;93.66
65478;SHT31;53678;39.642;22.430;2023-01-05T02:43:16;4.61;93.55
65478;SHT31;53678;39.642;22.430;2023-01-05T02:45:46;4.51;93.21
65478;SHT31;53678;39.642;22.430;2023-01-05T02:48:15;4.60;93.31
65478;SHT31;53678;39.642;22.430;2023-01-05T02:53:44;4.45;93.84
65478;SHT31;53678;39.642;22.430;2023-01-05T02:56:22;4.27;94.87
65478;SHT31;53678;39.642;22.430;2023-01-05T02:59:20;4.27;95.14
65478;SHT31;53678;39.642;22.430;2023-01-05T03:01:55;4.16;95.03
65478;SHT31;53678;39.642;22.430;2023-01-05T03:04:27;4.30;95.22
65478;SHT31;53678;39.642;22.430;2023-01-05T03:07:01;4.31;95.27
65478;SHT31;53678;39.642;22.430;2023-01-05T03:09:31;4.37;95.72
65478;SHT31;53678;39.642;22.430;2023-01-05T03:12:22;4.29;96.38
65478;SHT31;53678;39.642;22.430;2023-01-05T03:15:21;4.48;96.93
65478;SHT31;53678;39.642;22.430;2023-01-05T03:17:58;4.50;96.33
65478;SHT31;53678;39.642;22.430;2023-01-05T03:20:30;4.54;96.27
65478;SHT31;53678;39.642;22.430;2023-01-05T03:22:58;4.64;96.06
65478;SHT31;53678;39.642;22.430;2023-01-05T03:25:47;4.72;95.35
65478;SHT31;53678;39.642;22.430;2023-01-05T03:29:19;4.72;95.57
65478;SHT31;53678;39.642;22.430;2023-01-05T03:31:47;4.75;95.44
65478;SHT31;53678;39.642;22.430;2023-01-05T03:37:51;4.68;95.11
65478;SHT31;53678;39.642;22.430;2023-01-05T03:40:25;4.64;95.53
65478;SHT31;53678;39.642;22.430;2023-01-05T03:42:53;4.67;95.88
65478;SHT31;53678;39.642;22.430;2023-01-05T03:45:21;4.75;95.99
65478;SHT31;53678;39.642;22.430;2023-01-05T03:47:48;4.79;95.64
65478;SHT31;53678;39.642;22.430;2023-01-05T03:50:21;4.85;95.60
65478;SHT31;53678;39.642;22.430;2023-01-05T03:52:47;4.91;95.53
65478;SHT31;53678;39.642;22.430;2023-01-05T03:55:14;4.92;95.36
65478;SHT31;53678;39.642;22.430;2023-01-05T03:57:42;4.93;95.38
65478;SHT31;53678;39.642;22.430;2023-01-05T04:00:09;4.95;95.79
65478;SHT31;53678;39.642;22.430;2023-01-05T04:02:43;5.00;95.39
65478;SHT31;53678;39.642;22.430;2023-01-05T04:05:12;5.06;95.47
65478;SHT31;53678;39.642;22.430;2023-01-05T04:07:39;5.13;95.17
65478;SHT31;53678;39.642;22.430;2023-01-05T04:10:08;5.19;95.48
65478;SHT31;53678;39.642;22.430;2023-01-05T04:12:35;5.15;95.13
65478;SHT31;53678;39.642;22.430;2023-01-05T04:15:03;5.18;95.11
65478;SHT31;53678;39.642;22.430;2023-01-05T04:17:31;5.20;95.14
65478;SHT31;53678;39.642;22.430;2023-01-05T04:19:57;5.23;94.91
65478;SHT31;53678;39.642;22.430;2023-01-05T04:22:23;5.27;95.25
65478;SHT31;53678;39.642;22.430;2023-01-05T04:24:49;5.36;95.03
65478;SHT31;53678;39.642;22.430;2023-01-05T04:27:17;5.31;95.10
65478;SHT31;53678;39.642;22.430;2023-01-05T04:29:44;5.36;95.44
65478;SHT31;53678;39.642;22.430;2023-01-05T04:32:11;5.39;95.16
65478;SHT31;53678;39.642;22.430;2023-01-05T04:34:40;5.36;94.94
65478;SHT31;53678;39.642;22.430;2023-01-05T04:37:07;5.39;94.89
65478;SHT31;53678;39.642;22.430;2023-01-05T04:39:33;5.37;94.94
65478;SHT31;53678;39.642;22.430;2023-01-05T04:42:01;5.34;95.24
65478;SHT31;53678;39.642;22.430;2023-01-05T04:44:28;5.31;95.25
65478;SHT31;53678;39.642;22.430;2023-01-05T04:46:58;5.43;95.57
65478;SHT31;53678;39.642;22.430;2023-01-05T04:49:24;5.50;95.14
65478;SHT31;53678;39.642;22.430;2023-01-05T04:51:51;5.51;95.10
65478;SHT31;53678;39.642;22.430;2023-01-05T04:54:20;5.65;95.05
65478;SHT31;53678;39.642;22.430;2023-01-05T04:56:46;5.67;94.82
65478;SHT31;53678;39.642;22.430;2023-01-05T04:59:12;5.65;94.61
65478;SHT31;53678;39.642;22.430;2023-01-05T05:01:39;5.70;94.68
65478;SHT31;53678;39.642;22.430;2023-01-05T05:04:09;5.70;94.67
65478;SHT31;53678;39.642;22.430;2023-01-05T05:06:36;5.75;95.16
65478;SHT31;53678;39.642;22.430;2023-01-05T05:09:04;5.72;95.02
65478;SHT31;53678;39.642;22.430;2023-01-05T05:11:30;5.74;95.17
65478;SHT31;53678;39.642;22.430;2023-01-05T05:13:56;5.74;95.40
65478;SHT31;53678;39.642;22.430;2023-01-05T05:16:23;5.84;95.73
65478;SHT31;53678;39.642;22.430;2023-01-05T05:18:50;6.02;95.64
65478;SHT31;53678;39.642;22.430;2023-01-05T05:21:21;6.08;95.46
65478;SHT31;53678;39.642;22.430;2023-01-05T05:23:47;6.08;94.80
65478;SHT31;53678;39.642;22.430;2023-01-05T05:26:13;6.10;94.88
65478;SHT31;53678;39.642;22.430;2023-01-05T05:28:40;6.10;94.94
65478;SHT31;53678;39.642;22.430;2023-01-05T05:31:06;6.03;94.98
65478;SHT31;53678;39.642;22.430;2023-01-05T05:33:32;5.95;95.00
65478;SHT31;53678;39.642;22.430;2023-01-05T05:35:58;5.92;95.14
65478;SHT31;53678;39.642;22.430;2023-01-05T05:38:24;5.84;95.54
65478;SHT31;53678;39.642;22.430;2023-01-05T05:40:51;5.98;95.44
65478;SHT31;53678;39.642;22.430;2023-01-05T05:43:17;5.95;95.17
65478;SHT31;53678;39.642;22.430;2023-01-05T05:45:44;5.89;95.28
65478;SHT31;53678;39.642;22.430;2023-01-05T05:48:10;5.89;95.57
65478;SHT31;53678;39.642;22.430;2023-01-05T05:50:37;5.75;95.64
65478;SHT31;53678;39.642;22.430;2023-01-05T05:53:06;5.77;95.97
65478;SHT31;53678;39.642;22.430;2023-01-05T05:55:32;5.79;96.29
65478;SHT31;53678;39.642;22.430;2023-01-05T05:57:59;5.91;96.68
65478;SHT31;53678;39.642;22.430;2023-01-05T06:00:25;6.05;96.23
65478;SHT31;53678;39.642;22.430;2023-01-05T06:02:50;6.10;95.41
65478;SHT31;53678;39.642;22.430;2023-01-05T06:05:16;6.06;95.03
65478;SHT31;53678;39.642;22.430;2023-01-05T06:07:42;6.02;95.29
65478;SHT31;53678;39.642;22.430;2023-01-05T06:10:08;6.08;95.56
65478;SHT31;53678;39.642;22.430;2023-01-05T06:12:34;5.99;95.11
65478;SHT31;53678;39.642;22.430;2023-01-05T06:15:00;6.02;95.27
65478;SHT31;53678;39.642;22.430;2023-01-05T06:17:26;6.06;95.27
65478;SHT31;53678;39.642;22.430;2023-01-05T06:19:52;5.99;95.27
65478;SHT31;53678;39.642;22.430;2023-01-05T06:22:19;6.03;95.32
65478;SHT31;53678;39.642;22.430;2023-01-05T06:24:46;6.06;94.96
65478;SHT31;53678;39.642;22.430;2023-01-05T06:27:13;6.06;95.83
65478;SHT31;53678;39.642;22.430;2023-01-05T06:29:39;6.01;95.16
65478;SHT31;53678;39.642;22.430;2023-01-05T06:32:05;5.97;95.36
65478;SHT31;53678;39.642;22.430;2023-01-05T06:34:31;5.91;95.52
65478;SHT31;53678;39.642;22.430;2023-01-05T06:36:57;5.98;95.83
65478;SHT31;53678;39.642;22.430;2023-01-05T06:39:23;6.03;96.21
65478;SHT31;53678;39.642;22.430;2023-01-05T06:41:52;6.18;95.71
65478;SHT31;53678;39.642;22.430;2023-01-05T06:44:18;6.23;95.35
65478;SHT31;53678;39.642;22.430;2023-01-05T06:46:44;6.32;94.60
65478;SHT31;53678;39.642;22.430;2023-01-05T06:49:10;6.34;94.82
65478;SHT31;53678;39.642;22.430;2023-01-05T06:51:36;6.49;94.96
65478;SHT31;53678;39.642;22.430;2023-01-05T06:54:06;6.50;94.36
65478;SHT31;53678;39.642;22.430;2023-01-05T06:56:33;6.63;94.28
65478;SHT31;53678;39.642;22.430;2023-01-05T06:58:59;6.58;94.07
65478;SHT31;53678;39.642;22.430;2023-01-05T07:01:25;6.56;94.00
65478;SHT31;53678;39.642;22.430;2023-01-05T07:03:52;6.54;94.26
65478;SHT31;53678;39.642;22.430;2023-01-05T07:06:18;6.57;94.37
65478;SHT31;53678;39.642;22.430;2023-01-05T07:08:44;6.50;94.53
65478;SHT31;53678;39.642;22.430;2023-01-05T07:11:10;6.63;95.24
65478;SHT31;53678;39.642;22.430;2023-01-05T07:13:36;6.63;94.80
65478;SHT31;53678;39.642;22.430;2023-01-05T07:16:02;6.64;95.03
65478;SHT31;53678;39.642;22.430;2023-01-05T07:18:28;6.73;94.85
65478;SHT31;53678;39.642;22.430;2023-01-05T07:20:54;6.80;94.69
65478;SHT31;53678;39.642;22.430;2023-01-05T07:23:19;6.73;94.17
65478;SHT31;53678;39.642;22.430;2023-01-05T07:25:46;6.37;95.49
65478;SHT31;53678;39.642;22.430;2023-01-05T07:28:13;6.58;95.69
65478;SHT31;53678;39.642;22.430;2023-01-05T07:30:41;6.64;94.75
65478;SHT31;53678;39.642;22.430;2023-01-05T07:33:07;6.70;95.64
65478;SHT31;53678;39.642;22.430;2023-01-05T07:35:33;7.29;95.22
65478;SHT31;53678;39.642;22.430;2023-01-05T07:38:00;7.47;93.34
65478;SHT31;53678;39.642;22.430;2023-01-05T07:40:26;7.98;91.21
65478;SHT31;53678;39.642;22.430;2023-01-05T07:42:53;8.44;91.98
65478;SHT31;53678;39.642;22.430;2023-01-05T07:45:22;8.76;89.20
65478;SHT31;53678;39.642;22.430;2023-01-05T07:47:49;8.67;88.64
65478;SHT31;53678;39.642;22.430;2023-01-05T07:50:20;8.75;86.95
65478;SHT31;53678;39.642;22.430;2023-01-05T07:52:46;8.96;87.44
65478;SHT31;53678;39.642;22.430;2023-01-05T07:55:13;9.31;86.22
65478;SHT31;53678;39.642;22.430;2023-01-05T07:57:40;9.21;86.36
65478;SHT31;53678;39.642;22.430;2023-01-05T08:00:09;9.14;86.53
65478;SHT31;53678;39.642;22.430;2023-01-05T08:02:38;8.50;88.20
65478;SHT31;53678;39.642;22.430;2023-01-05T08:05:06;8.83;87.98
65478;SHT31;53678;39.642;22.430;2023-01-05T08:07:34;8.94;87.86
65478;SHT31;53678;39.642;22.430;2023-01-05T08:10:02;9.11;87.05
65478;SHT31;53678;39.642;22.430;2023-01-05T08:12:47;8.80;87.75
65478;SHT31;53678;39.642;22.430;2023-01-05T08:15:31;8.84;87.93
65478;SHT31;53678;39.642;22.430;2023-01-05T08:17:57;9.28;87.28
65478;SHT31;53678;39.642;22.430;2023-01-05T08:20:23;9.31;86.30
65478;SHT31;53678;39.642;22.430;2023-01-05T08:22:52;9.59;85.80
65478;SHT31;53678;39.642;22.430;2023-01-05T08:25:19;9.68;85.27
65478;SHT31;53678;39.642;22.430;2023-01-05T08:27:46;9.83;84.69
65478;SHT31;53678;39.642;22.430;2023-01-05T08:30:13;9.71;84.60
65478;SHT31;53678;39.642;22.430;2023-01-05T08:32:40;9.92;83.83
65478;SHT31;53678;39.642;22.430;2023-01-05T08:35:07;9.92;83.12
65478;SHT31;53678;39.642;22.430;2023-01-05T08:37:33;9.99;83.37
65478;SHT31;53678;39.642;22.430;2023-01-05T08:40:00;9.99;83.85
65478;SHT31;53678;39.642;22.430;2023-01-05T08:42:26;10.11;83.79
65478;SHT31;53678;39.642;22.430;2023-01-05T08:44:53;9.69;84.57
65478;SHT31;53678;39.642;22.430;2023-01-05T08:47:19;10.17;83.29
65478;SHT31;53678;39.642;22.430;2023-01-05T08:49:46;10.29;82.65
65478;SHT31;53678;39.642;22.430;2023-01-05T08:52:12;10.18;83.69
65478;SHT31;53678;39.642;22.430;2023-01-05T08:54:38;10.40;82.40
65478;SHT31;53678;39.642;22.430;2023-01-05T08:57:03;10.55;81.87
65478;SHT31;53678;39.642;22.430;2023-01-05T08:59:29;10.73;81.15
65478;SHT31;53678;39.642;22.430;2023-01-05T09:01:55;10.64;82.19
65478;SHT31;53678;39.642;22.430;2023-01-05T09:04:27;10.58;82.22
65478;SHT31;53678;39.642;22.430;2023-01-05T09:06:55;10.65;82.47
65478;SHT31;53678;39.642;22.430;2023-01-05T09:09:20;10.82;81.41
65478;SHT31;53678;39.642;22.430;2023-01-05T09:11:49;10.86;81.14
65478;SHT31;53678;39.642;22.430;2023-01-05T09:14:15;11.00;81.26
65478;SHT31;53678;39.642;22.430;2023-01-05T09:16:41;11.15;80.51
65478;SHT31;53678;39.642;22.430;2023-01-05T09:19:08;11.31;80.06
65478;SHT31;53678;39.642;22.430;2023-01-05T09:21:35;11.41;79.76
65478;SHT31;53678;39.642;22.430;2023-01-05T09:24:04;11.46;79.41
65478;SHT31;53678;39.642;22.430;2023-01-05T09:26:32;11.60;79.72
65478;SHT31;53678;39.642;22.430;2023-01-05T09:28:59;11.68;78.95
65478;SHT31;53678;39.642;22.430;2023-01-05T09:31:28;11.73;79.17
65478;SHT31;53678;39.642;22.430;2023-01-05T09:33:56;11.67;78.45
65478;SHT31;53678;39.642;22.430;2023-01-05T09:36:22;11.34;79.09
65478;SHT31;53678;39.642;22.430;2023-01-05T09:38:51;11.30;79.52
65478;SHT31;53678;39.642;22.430;2023-01-05T09:41:41;11.31;79.42
65478;SHT31;53678;39.642;22.430;2023-01-05T09:44:29;11.27;79.83
65478;SHT31;53678;39.642;22.430;2023-01-05T09:49:41;11.29;80.22
65478;SHT31;53678;39.642;22.430;2023-01-05T09:52:08;11.36;79.96
65478;SHT31;53678;39.642;22.430;2023-01-05T09:54:36;11.67;79.10
65478;SHT31;53678;39.642;22.430;2023-01-05T09:57:03;11.74;79.28
65478;SHT31;53678;39.642;22.430;2023-01-05T09:59:49;11.78;79.85
65478;SHT31;53678;39.642;22.430;2023-01-05T10:02:28;11.89;78.82
65478;SHT31;53678;39.642;22.430;2023-01-05T10:04:58;11.81;78.83
65478;SHT31;53678;39.642;22.430;2023-01-05T10:07:49;11.84;78.54
65478;SHT31;53678;39.642;22.430;2023-01-05T10:12:52;11.58;79.90
65478;SHT31;53678;39.642;22.430;2023-01-05T10:15:37;11.39;81.62
65478;SHT31;53678;39.642;22.430;2023-01-05T10:18:25;11.70;81.09
65478;SHT31;53678;39.642;22.430;2023-01-05T10:26:19;11.79;81.11
65478;SHT31;53678;39.642;22.430;2023-01-05T10:29:02;11.79;81.41
65478;SHT31;53678;39.642;22.430;2023-01-05T10:45:42;12.25;78.77
65478;SHT31;53678;39.642;22.430;2023-01-05T10:48:21;12.36;78.46
65478;SHT31;53678;39.642;22.430;2023-01-05T10:50:48;12.47;78.33
65478;SHT31;53678;39.642;22.430;2023-01-05T10:53:21;12.56;77.91
65478;SHT31;53678;39.642;22.430;2023-01-05T10:56:02;12.61;78.12
65478;SHT31;53678;39.642;22.430;2023-01-05T10:58:33;12.59;77.97
65478;SHT31;53678;39.642;22.430;2023-01-05T11:01:23;12.64;77.67
65478;SHT31;53678;39.642;22.430;2023-01-05T11:04:03;12.74;77.59
65478;SHT31;53678;39.642;22.430;2023-01-05T11:06:33;12.64;78.17
65478;SHT31;53678;39.642;22.430;2023-01-05T11:09:23;12.79;77.94
65478;SHT31;53678;39.642;22.430;2023-01-05T11:11:55;12.60;78.25
65478;SHT31;53678;39.642;22.430;2023-01-05T11:14:22;12.77;77.53
65478;SHT31;53678;39.642;22.430;2023-01-05T11:16:50;12.97;77.65
65478;SHT31;53678;39.642;22.430;2023-01-05T11:19:27;12.93;77.39
65478;SHT31;53678;39.642;22.430;2023-01-05T11:21:54;12.85;77.91
65478;SHT31;53678;39.642;22.430;2023-01-05T11:24:33;12.70;78.54
65478;SHT31;53678;39.642;22.430;2023-01-05T11:27:03;12.87;78.45
65478;SHT31;53678;39.642;22.430;2023-01-05T11:30:16;12.94;77.97
65478;SHT31;53678;39.642;22.430;2023-01-05T11:32:44;12.84;77.92
65478;SHT31;53678;39.642;22.430;2023-01-05T11:35:29;12.94;78.17
65478;SHT31;53678;39.642;22.430;2023-01-05T11:37:57;13.14;77.82
65478;SHT31;53678;39.642;22.430;2023-01-05T11:40:27;13.22;77.92
65478;SHT31;53678;39.642;22.430;2023-01-05T11:42:57;13.15;77.94
65478;SHT31;53678;39.642;22.430;2023-01-05T11:45:26;13.21;77.50
65478;SHT31;53678;39.642;22.430;2023-01-05T11:48:00;13.19;77.77
65478;SHT31;53678;39.642;22.430;2023-01-05T11:50:44;13.26;78.03
65478;SHT31;53678;39.642;22.430;2023-01-05T11:53:22;13.04;77.98
65478;SHT31;53678;39.642;22.430;2023-01-05T11:56:20;13.07;78.08
65478;SHT31;53678;39.642;22.430;2023-01-05T11:59:02;13.16;77.58
65478;SHT31;53678;39.642;22.430;2023-01-05T12:07:00;13.29;77.60
65478;SHT31;53678;39.642;22.430;2023-01-05T12:09:38;13.35;77.37
65478;SHT31;53678;39.642;22.430;2023-01-05T12:15:25;13.16;78.04
65478;SHT31;53678;39.642;22.430;2023-01-05T12:21:16;13.43;77.69
65478;SHT31;53678;39.642;22.430;2023-01-05T12:42:58;13.31;77.19
65478;SHT31;53678;39.642;22.430;2023-01-05T12:48:40;13.21;76.92
65478;SHT31;53678;39.642;22.430;2023-01-05T12:51:27;13.05;77.55
65478;SHT31;53678;39.642;22.430;2023-01-05T12:56:34;12.95;77.58
65478;SHT31;53678;39.642;22.430;2023-01-05T13:02:01;13.10;76.10
65478;SHT31;53678;39.642;22.430;2023-01-05T13:04:50;13.07;76.46
65478;SHT31;53678;39.642;22.430;2023-01-05T13:07:31;12.97;77.69
65478;SHT31;53678;39.642;22.430;2023-01-05T13:13:15;13.03;77.06
65478;SHT31;53678;39.642;22.430;2023-01-05T13:15:49;13.03;77.80
65478;SHT31;53678;39.642;22.430;2023-01-05T13:18:17;13.05;77.51
65478;SHT31;53678;39.642;22.430;2023-01-05T13:21:01;13.25;76.76
65478;SHT31;53678;39.642;22.430;2023-01-05T13:23:36;13.25;76.55
65478;SHT31;53678;39.642;22.430;2023-01-05T13:26:10;13.25;76.87
65478;SHT31;53678;39.642;22.430;2023-01-05T13:28:42;13.08;77.31
65478;SHT31;53678;39.642;22.430;2023-01-05T13:31:28;13.08;77.33
65478;SHT31;53678;39.642;22.430;2023-01-05T13:50:30;12.76;78.07
65478;SHT31;53678;39.642;22.430;2023-01-05T13:53:17;12.79;78.11
65478;SHT31;53678;39.642;22.430;2023-01-05T13:55:59;12.79;78.01
65478;SHT31;53678;39.642;22.430;2023-01-05T14:01:08;12.72;78.31
65478;SHT31;53678;39.642;22.430;2023-01-05T14:03:37;12.68;78.41
65478;SHT31;53678;39.642;22.430;2023-01-05T14:06:17;12.63;78.91
65478;SHT31;53678;39.642;22.430;2023-01-05T14:08:56;12.63;78.89
65478;SHT31;53678;39.642;22.430;2023-01-05T14:11:25;12.63;79.20
65478;SHT31;53678;39.642;22.430;2023-01-05T14:14:24;12.63;79.07
65478;SHT31;53678;39.642;22.430;2023-01-05T14:16:48;12.50;79.44
65478;SHT31;53678;39.642;22.430;2023-01-05T14:19:46;12.40;79.55
65478;SHT31;53678;39.642;22.430;2023-01-05T14:24:45;12.37;79.50
65478;SHT31;53678;39.642;22.430;2023-01-05T14:32:28;12.32;79.96
65478;SHT31;53678;39.642;22.430;2023-01-05T14:37:55;12.21;80.30
65478;SHT31;53678;39.642;22.430;2023-01-05T14:40:32;12.15;80.41
65478;SHT31;53678;39.642;22.430;2023-01-05T14:43:00;12.16;80.52
65478;SHT31;53678;39.642;22.430;2023-01-05T14:45:31;12.11;80.47
65478;SHT31;53678;39.642;22.430;2023-01-05T14:48:01;12.05;80.74
65478;SHT31;53678;39.642;22.430;2023-01-05T14:50:37;12.01;80.80
65478;SHT31;53678;39.642;22.430;2023-01-05T15:04:06;11.84;81.26
65478;SHT31;53678;39.642;22.430;2023-01-05T15:31:49;11.24;83.37
65478;SHT31;53678;39.642;22.430;2023-01-05T15:34:35;11.20;83.74
65478;SHT31;53678;39.642;22.430;2023-01-05T15:39:44;11.12;83.95
65478;SHT31;53678;39.642;22.430;2023-01-05T15:42:38;11.08;84.30
65478;SHT31;53678;39.642;22.430;2023-01-05T15:45:28;11.02;84.46
65478;SHT31;53678;39.642;22.430;2023-01-05T15:47:53;10.93;84.94
65478;SHT31;53678;39.642;22.430;2023-01-05T15:50:36;10.91;85.06
65478;SHT31;53678;39.642;22.430;2023-01-05T15:53:03;10.86;85.02
65478;SHT31;53678;39.642;22.430;2023-01-05T15:55:30;10.86;85.25
65478;SHT31;53678;39.642;22.430;2023-01-05T15:58:11;10.82;85.24
65478;SHT31;53678;39.642;22.430;2023-01-05T16:00:38;10.78;85.42
65478;SHT31;53678;39.642;22.430;2023-01-05T16:03:35;10.71;85.68
65478;SHT31;53678;39.642;22.430;2023-01-05T16:06:05;10.67;86.21
65478;SHT31;53678;39.642;22.430;2023-01-05T16:08:43;10.61;86.31
65478;SHT31;53678;39.642;22.430;2023-01-05T16:11:11;10.55;86.61
65478;SHT31;53678;39.642;22.430;2023-01-05T16:13:57;10.48;86.89
65478;SHT31;53678;39.642;22.430;2023-01-05T16:16:40;10.41;87.16
65478;SHT31;53678;39.642;22.430;2023-01-05T16:26:51;10.30;87.97
65478;SHT31;53678;39.642;22.430;2023-01-05T16:29:35;10.31;88.00
65478;SHT31;53678;39.642;22.430;2023-01-05T16:32:04;10.25;88.14
65478;SHT31;53678;39.642;22.430;2023-01-05T16:34:31;10.21;88.28
65478;SHT31;53678;39.642;22.430;2023-01-05T16:37:13;10.21;88.28
65478;SHT31;53678;39.642;22.430;2023-01-05T16:39:42;10.18;88.38
65478;SHT31;53678;39.642;22.430;2023-01-05T16:42:20;10.17;88.42
65478;SHT31;53678;39.642;22.430;2023-01-05T16:45:25;10.16;88.56
65478;SHT31;53678;39.642;22.430;2023-01-05T16:47:54;10.11;88.75
65478;SHT31;53678;39.642;22.430;2023-01-05T16:50:54;10.09;88.87
65478;SHT31;53678;39.642;22.430;2023-01-05T16:53:22;10.03;89.13
65478;SHT31;53678;39.642;22.430;2023-01-05T16:55:48;10.00;89.32
65478;SHT31;53678;39.642;22.430;2023-01-05T16:58:40;10.14;89.03
65478;SHT31;53678;39.642;22.430;2023-01-05T17:03:45;9.93;88.47
65478;SHT31;53678;39.642;22.430;2023-01-05T17:08:49;9.72;89.48
65478;SHT31;53678;39.642;22.430;2023-01-05T17:11:17;9.59;89.91
65478;SHT31;53678;39.642;22.430;2023-01-05T17:13:49;9.44;90.59
65478;SHT31;53678;39.642;22.430;2023-01-05T17:16:19;9.28;90.82
65478;SHT31;53678;39.642;22.430;2023-01-05T17:18:51;9.21;91.19
65478;SHT31;53678;39.642;22.430;2023-01-05T17:21:20;9.21;91.18
65478;SHT31;53678;39.642;22.430;2023-01-05T17:23:50;9.20;91.21
65478;SHT31;53678;39.642;22.430;2023-01-05T17:26:28;9.14;91.48
65478;SHT31;53678;39.642;22.430;2023-01-05T17:29:01;9.10;91.54
65478;SHT31;53678;39.642;22.430;2023-01-05T17:31:29;9.04;91.82
65478;SHT31;53678;39.642;22.430;2023-01-05T17:33:54;9.05;91.74
65478;SHT31;53678;39.642;22.430;2023-01-05T17:36:28;9.04;91.85
65478;SHT31;53678;39.642;22.430;2023-01-05T17:38:54;9.01;91.71
65478;SHT31;53678;39.642;22.430;2023-01-05T17:41:22;9.00;92.05
65478;SHT31;53678;39.642;22.430;2023-01-05T17:43:48;9.03;91.85
65478;SHT31;53678;39.642;22.430;2023-01-05T17:46:17;9.01;91.76
65478;SHT31;53678;39.642;22.430;2023-01-05T17:48:43;8.99;91.96
65478;SHT31;53678;39.642;22.430;2023-01-05T17:51:09;8.99;92.04
65478;SHT31;53678;39.642;22.430;2023-01-05T17:53:35;8.99;91.98
65478;SHT31;53678;39.642;22.430;2023-01-05T17:56:03;9.03;92.20
65478;SHT31;53678;39.642;22.430;2023-01-05T17:58:29;9.00;91.98
65478;SHT31;53678;39.642;22.430;2023-01-05T18:00:55;8.99;92.00
65478;SHT31;53678;39.642;22.430;2023-01-05T18:03:21;8.97;92.11
65478;SHT31;53678;39.642;22.430;2023-01-05T18:05:49;8.97;92.24
65478;SHT31;53678;39.642;22.430;2023-01-05T18:08:17;8.97;92.09
65478;SHT31;53678;39.642;22.430;2023-01-05T18:10:44;8.99;92.31
65478;SHT31;53678;39.642;22.430;2023-01-05T18:13:11;8.97;92.18
65478;SHT31;53678;39.642;22.430;2023-01-05T18:15:45;9.00;92.39
65478;SHT31;53678;39.642;22.430;2023-01-05T18:18:12;9.00;92.45
65478;SHT31;53678;39.642;22.430;2023-01-05T18:20:41;9.03;92.50
65478;SHT31;53678;39.642;22.430;2023-01-05T18:23:08;9.05;92.46
65478;SHT31;53678;39.642;22.430;2023-01-05T18:25:37;9.01;92.28
65478;SHT31;53678;39.642;22.430;2023-01-05T18:28:04;9.07;92.24
65478;SHT31;53678;39.642;22.430;2023-01-05T18:30:30;9.08;92.07
65478;SHT31;53678;39.642;22.430;2023-01-05T18:32:55;9.03;92.16
65478;SHT31;53678;39.642;22.430;2023-01-05T18:35:22;9.03;92.09
65478;SHT31;53678;39.642;22.430;2023-01-05T18:37:48;9.00;91.99
65478;SHT31;53678;39.642;22.430;2023-01-05T18:40:16;8.93;91.76
65478;SHT31;53678;39.642;22.430;2023-01-05T18:42:42;8.83;91.24
65478;SHT31;53678;39.642;22.430;2023-01-05T18:45:09;8.57;92.27
65478;SHT31;53678;39.642;22.430;2023-01-05T18:47:37;8.45;92.72
65478;SHT31;53678;39.642;22.430;2023-01-05T18:50:04;8.38;93.20
65478;SHT31;53678;39.642;22.430;2023-01-05T18:52:34;8.35;93.46